createdAt,value
2018-11-05T00:00:55.078Z,14.33
2018-11-05T00:03:26.464Z,14.30
2018-11-05T00:05:58.081Z,14.37
2018-11-05T00:08:31.012Z,14.50
2018-11-05T00:11:02.265Z,13.40
2018-11-05T00:13:33.715Z,14.30
2018-11-05T00:16:05.110Z,13.20
2018-11-05T00:18:36.504Z,13.93
2018-11-05T00:21:08.070Z,14.00
2018-11-05T00:23:39.939Z,13.50
2018-11-05T00:26:12.070Z,13.00
2018-11-05T00:28:43.173Z,12.93
2018-11-05T00:31:15.570Z,12.87
2018-11-05T00:33:46.780Z,12.43
2018-11-05T00:36:18.342Z,13.40
2018-11-05T00:38:50.604Z,14.10
2018-11-05T00:41:22.174Z,14.77
2018-11-05T00:43:53.810Z,14.23
2018-11-05T00:46:25.879Z,14.40
2018-11-05T00:48:58.415Z,14.23
2018-11-05T00:51:30.684Z,13.80
2018-11-05T00:54:02.615Z,13.23
2018-11-05T00:56:35.093Z,15.43
2018-11-05T00:59:07.630Z,15.77
2018-11-05T01:01:39.259Z,16.10
2018-11-05T01:04:11.377Z,16.90
2018-11-05T01:06:43.213Z,16.30
2018-11-05T01:09:15.199Z,17.43
2018-11-05T01:11:46.776Z,17.27
2018-11-05T01:14:18.261Z,18.10
2018-11-05T01:16:50.217Z,18.27
2018-11-05T01:19:21.797Z,16.57
2018-11-05T01:21:53.368Z,16.43
2018-11-05T01:24:25.613Z,17.07
2018-11-05T01:26:57.255Z,17.27
2018-11-05T01:29:28.877Z,17.37
2018-11-05T01:32:00.872Z,18.97
2018-11-05T01:34:31.783Z,17.17
2018-11-05T01:37:03.698Z,17.63
2018-11-05T01:39:35.722Z,17.00
2018-11-05T01:42:07.418Z,17.60
2018-11-05T01:44:38.953Z,17.60
2018-11-05T01:47:11.114Z,32.37
2018-11-05T01:49:42.488Z,34.10
2018-11-05T01:52:14.315Z,20.57
2018-11-05T01:54:46.155Z,19.77
2018-11-05T01:57:18.129Z,16.57
2018-11-05T01:59:50.199Z,28.20
2018-11-05T02:02:22.047Z,24.57
2018-11-05T02:04:54.152Z,22.00
2018-11-05T02:07:26.345Z,20.33
2018-11-05T02:09:57.708Z,20.77
2018-11-05T02:12:29.474Z,20.07
2018-11-05T02:15:02.328Z,28.47
2018-11-05T02:17:34.039Z,23.60
2018-11-05T02:20:06.674Z,21.60
2018-11-05T02:22:38.605Z,24.07
2018-11-05T02:25:11.804Z,32.50
2018-11-05T02:27:43.733Z,23.70
2018-11-05T02:30:18.761Z,22.80
2018-11-05T02:32:50.247Z,21.20
2018-11-05T02:35:21.930Z,18.83
2018-11-05T02:37:53.622Z,18.53
2018-11-05T02:40:25.692Z,18.80
2018-11-05T02:42:57.283Z,16.87
2018-11-05T02:45:29.702Z,17.43
2018-11-05T02:48:01.193Z,16.57
2018-11-05T02:50:33.504Z,16.60
2018-11-05T02:53:04.947Z,18.00
2018-11-05T02:55:36.516Z,18.37
2018-11-05T02:58:08.132Z,17.30
2018-11-05T03:00:39.756Z,17.90
2018-11-05T03:03:11.720Z,18.23
2018-11-05T03:05:43.309Z,17.40
2018-11-05T03:08:14.957Z,17.30
2018-11-05T03:10:46.234Z,16.93
2018-11-05T03:13:18.093Z,21.50
2018-11-05T03:15:49.653Z,19.50
2018-11-05T03:18:20.589Z,19.80
2018-11-05T03:20:51.583Z,19.00
2018-11-05T03:23:23.321Z,19.90
2018-11-05T03:25:55.645Z,18.93
2018-11-05T03:28:27.297Z,19.97
2018-11-05T03:30:59.040Z,19.97
2018-11-05T03:33:30.633Z,18.93
2018-11-05T03:36:02.133Z,18.73
2018-11-05T03:38:33.541Z,18.13
2018-11-05T03:41:04.770Z,16.87
2018-11-05T03:43:36.543Z,20.97
2018-11-05T03:46:08.383Z,18.73
2018-11-05T03:48:40.224Z,18.20
2018-11-05T03:51:11.741Z,19.60
2018-11-05T03:53:43.942Z,17.60
2018-11-05T03:56:15.662Z,16.93
2018-11-05T03:58:47.108Z,18.63
2018-11-05T04:01:18.984Z,19.00
2018-11-05T04:03:50.606Z,17.10
2018-11-05T04:06:22.140Z,17.63
2018-11-05T04:08:53.839Z,18.33
2018-11-05T04:11:25.052Z,18.40
2018-11-05T04:13:57.306Z,19.30
2018-11-05T04:16:29.313Z,17.57
2018-11-05T04:19:00.616Z,19.03
2018-11-05T04:21:46.190Z,18.77
2018-11-05T04:24:17.829Z,18.20
2018-11-05T04:26:48.991Z,19.23
2018-11-05T04:29:20.828Z,20.20
2018-11-05T04:31:52.284Z,18.20
2018-11-05T04:34:23.600Z,18.93
2018-11-05T04:36:56.234Z,19.60
2018-11-05T04:39:27.562Z,17.43
2018-11-05T04:41:59.451Z,18.97
2018-11-05T04:44:30.888Z,19.90
2018-11-05T04:47:03.186Z,18.37
2018-11-05T04:49:35.121Z,17.47
2018-11-05T04:52:07.515Z,18.73
2018-11-05T04:54:39.425Z,20.20
2018-11-05T04:57:11.123Z,19.10
2018-11-05T04:59:43.080Z,19.53
2018-11-05T05:02:15.103Z,20.30
2018-11-05T05:04:46.903Z,18.30
2018-11-05T05:07:18.413Z,19.13
2018-11-05T05:09:49.796Z,20.07
2018-11-05T05:12:22.787Z,20.17
2018-11-05T05:14:53.921Z,20.00
2018-11-05T05:17:25.226Z,20.70
2018-11-05T05:19:57.612Z,20.13
2018-11-05T05:22:29.468Z,20.63
2018-11-05T05:25:01.433Z,20.33
2018-11-05T05:27:32.720Z,20.77
2018-11-05T05:30:05.898Z,21.60
2018-11-05T05:32:38.500Z,19.90
2018-11-05T05:35:10.247Z,21.80
2018-11-05T05:37:43.503Z,21.50
2018-11-05T05:40:16.111Z,22.00
2018-11-05T05:42:47.634Z,24.10
2018-11-05T05:45:19.425Z,22.73
2018-11-05T05:47:51.734Z,22.60
2018-11-05T05:50:23.291Z,23.87
2018-11-05T05:52:54.952Z,24.50
2018-11-05T05:55:27.613Z,22.77
2018-11-05T05:57:59.419Z,25.10
2018-11-05T06:00:31.668Z,24.07
2018-11-05T06:03:03.932Z,24.27
2018-11-05T06:05:35.027Z,23.03
2018-11-05T06:08:06.339Z,24.77
2018-11-05T06:10:38.887Z,23.87
2018-11-05T06:13:11.052Z,24.37
2018-11-05T06:15:43.042Z,24.87
2018-11-05T06:18:14.565Z,23.03
2018-11-05T06:20:45.591Z,25.17
2018-11-05T06:23:16.636Z,24.40
2018-11-05T06:25:47.835Z,23.53
2018-11-05T06:28:19.421Z,25.93
2018-11-05T06:30:51.872Z,22.67
2018-11-05T06:33:23.280Z,23.40
2018-11-05T06:35:55.191Z,23.53
2018-11-05T06:38:26.377Z,24.67
2018-11-05T06:40:58.185Z,21.70
2018-11-05T06:43:29.889Z,21.20
2018-11-05T06:46:00.986Z,20.73
2018-11-05T06:48:32.463Z,20.80
2018-11-05T06:51:03.529Z,22.23
2018-11-05T06:53:35.506Z,23.80
2018-11-05T06:56:07.657Z,27.13
2018-11-05T06:58:41.455Z,26.43
2018-11-05T07:01:12.623Z,28.30
2018-11-05T07:03:44.225Z,24.33
2018-11-05T07:06:15.614Z,24.13
2018-11-05T07:08:46.990Z,24.13
2018-11-05T07:11:18.862Z,25.07
2018-11-05T07:13:49.842Z,23.93
2018-11-05T07:16:21.234Z,23.43
2018-11-05T07:18:52.923Z,22.50
2018-11-05T07:21:24.368Z,21.80
2018-11-05T07:23:55.608Z,20.47
2018-11-05T07:26:26.658Z,21.30
2018-11-05T07:28:57.980Z,21.30
2018-11-05T07:31:29.486Z,20.80
2018-11-05T07:34:00.605Z,21.33
2018-11-05T07:36:32.685Z,21.60
2018-11-05T07:39:05.061Z,21.20
2018-11-05T07:41:36.533Z,21.10
2018-11-05T07:44:08.439Z,22.07
2018-11-05T07:46:40.048Z,21.60
2018-11-05T07:49:11.554Z,22.80
2018-11-05T07:51:43.523Z,22.77
2018-11-05T07:54:15.105Z,24.37
2018-11-05T07:56:46.704Z,23.30
2018-11-05T07:59:18.406Z,23.50
2018-11-05T08:01:49.777Z,22.60
2018-11-05T08:04:20.851Z,20.10
2018-11-05T08:08:16.030Z,18.30
2018-11-05T08:10:47.798Z,18.73
2018-11-05T08:13:19.613Z,17.73
2018-11-05T08:15:50.684Z,18.67
2018-11-05T08:18:22.534Z,19.67
2018-11-05T08:20:54.052Z,20.60
2018-11-05T08:23:26.577Z,21.33
2018-11-05T08:25:58.205Z,19.90
2018-11-05T08:28:29.844Z,20.50
2018-11-05T08:31:01.678Z,19.43
2018-11-05T08:33:33.732Z,20.43
2018-11-05T08:36:05.238Z,20.20
2018-11-05T08:38:36.530Z,20.20
2018-11-05T08:41:08.526Z,19.50
2018-11-05T08:43:39.557Z,20.03
2018-11-05T08:46:11.712Z,29.00
2018-11-05T08:48:43.419Z,22.70
2018-11-05T08:51:15.543Z,23.33
2018-11-05T08:53:47.642Z,23.90
2018-11-05T08:56:18.768Z,24.77
2018-11-05T08:58:49.827Z,27.03
2018-11-05T09:01:21.224Z,22.47
2018-11-05T09:03:53.872Z,19.60
2018-11-05T09:06:25.997Z,25.83
2018-11-05T09:08:57.790Z,27.57
2018-11-05T09:11:29.674Z,23.50
2018-11-05T09:14:01.230Z,36.80
2018-11-05T09:16:33.049Z,29.17
2018-11-05T09:19:04.479Z,20.27
2018-11-05T09:21:36.053Z,23.53
2018-11-05T09:24:08.099Z,20.90
2018-11-05T09:26:39.838Z,20.00
2018-11-05T09:29:11.727Z,42.10
2018-11-05T09:31:43.456Z,32.40
2018-11-05T09:34:15.104Z,22.57
2018-11-05T09:36:47.467Z,21.20
2018-11-05T09:39:19.025Z,18.50
2018-11-05T09:41:50.132Z,16.60
2018-11-05T09:44:22.183Z,22.70
2018-11-05T09:46:53.854Z,23.60
2018-11-05T09:49:25.679Z,21.50
2018-11-05T09:51:57.706Z,25.90
2018-11-05T09:54:30.504Z,20.60
2018-11-05T09:57:01.940Z,19.70
2018-11-05T09:59:33.249Z,18.17
2018-11-05T10:02:05.819Z,17.70
2018-11-05T10:04:37.217Z,17.23
2018-11-05T10:07:09.622Z,19.37
2018-11-05T10:09:41.218Z,28.60
2018-11-05T10:12:12.755Z,19.70
2018-11-05T10:14:44.363Z,20.97
2018-11-05T10:17:16.355Z,17.90
2018-11-05T10:19:47.705Z,17.07
2018-11-05T10:22:19.307Z,22.23
2018-11-05T10:24:51.400Z,20.50
2018-11-05T10:27:24.618Z,20.43
2018-11-05T10:29:56.376Z,19.97
2018-11-05T10:32:27.812Z,19.67
2018-11-05T10:34:59.517Z,20.83
2018-11-05T10:37:32.577Z,19.93
2018-11-05T10:40:03.670Z,20.27
2018-11-05T10:42:35.325Z,18.23
2018-11-05T10:45:07.013Z,20.13
2018-11-05T10:47:38.521Z,20.27
2018-11-05T10:50:10.353Z,19.40
2018-11-05T10:52:42.939Z,19.03
2018-11-05T10:55:14.295Z,24.97
2018-11-05T10:57:45.670Z,21.33
2018-11-05T11:00:22.628Z,20.60
2018-11-05T11:02:58.197Z,20.23
2018-11-05T11:05:30.098Z,20.10
2018-11-05T11:08:02.735Z,20.83
2018-11-05T11:10:35.141Z,21.47
2018-11-05T11:13:07.199Z,20.70
2018-11-05T11:15:38.726Z,20.60
2018-11-05T11:18:11.499Z,20.67
2018-11-05T11:20:42.466Z,22.47
2018-11-05T11:23:13.807Z,22.67
2018-11-05T11:25:45.023Z,23.30
2018-11-05T11:28:16.444Z,21.93
2018-11-05T11:30:48.419Z,21.23
2018-11-05T11:33:19.430Z,23.37
2018-11-05T11:35:50.784Z,23.40
2018-11-05T11:38:22.802Z,22.83
2018-11-05T11:40:55.243Z,26.77
2018-11-05T11:43:26.773Z,24.20
2018-11-05T11:45:57.814Z,22.40
2018-11-05T11:48:29.132Z,21.60
2018-11-05T11:51:01.273Z,21.87
2018-11-05T11:53:32.862Z,21.10
2018-11-05T11:56:04.188Z,21.43
2018-11-05T11:58:35.815Z,21.70
2018-11-05T12:01:07.139Z,22.70
2018-11-05T12:03:38.450Z,22.73
2018-11-05T12:06:09.777Z,21.40
2018-11-05T12:08:41.351Z,22.37
2018-11-05T12:11:13.224Z,24.93
2018-11-05T12:13:44.606Z,22.70
2018-11-05T12:16:15.957Z,22.60
2018-11-05T12:18:48.397Z,23.20
2018-11-05T12:21:20.140Z,24.17
2018-11-05T12:23:51.892Z,22.73
2018-11-05T12:26:23.056Z,21.97
2018-11-05T12:28:55.116Z,24.00
2018-11-05T12:31:28.074Z,24.37
2018-11-05T12:33:59.719Z,23.03
2018-11-05T12:36:31.802Z,21.77
2018-11-05T12:39:04.046Z,21.70
2018-11-05T12:41:35.394Z,24.33
2018-11-05T12:44:07.431Z,23.97
2018-11-05T12:46:39.577Z,22.80
2018-11-05T12:49:11.240Z,22.80
2018-11-05T12:51:42.161Z,20.33
2018-11-05T12:54:13.151Z,22.30
2018-11-05T12:56:44.610Z,21.40
2018-11-05T12:59:15.796Z,21.60
2018-11-05T13:01:47.176Z,24.70
2018-11-05T13:04:18.743Z,22.97
2018-11-05T13:06:50.797Z,20.77
2018-11-05T13:09:22.147Z,21.80
2018-11-05T13:11:53.367Z,21.23
2018-11-05T13:14:24.444Z,21.30
2018-11-05T13:16:56.192Z,22.93
2018-11-05T13:19:27.546Z,20.90
2018-11-05T13:21:58.626Z,21.97
2018-11-05T13:24:29.731Z,21.60
2018-11-05T13:27:00.842Z,21.57
2018-11-05T13:29:32.422Z,22.47
2018-11-05T13:32:03.724Z,20.40
2018-11-05T13:34:35.550Z,21.43
2018-11-05T13:37:07.972Z,21.50
2018-11-05T13:39:39.030Z,23.10
2018-11-05T13:42:10.400Z,22.57
2018-11-05T13:44:41.433Z,23.37
2018-11-05T13:47:13.709Z,25.30
2018-11-05T13:49:45.150Z,25.23
2018-11-05T13:52:16.258Z,22.63
2018-11-05T13:54:47.697Z,22.13
2018-11-05T13:57:19.154Z,25.50
2018-11-05T13:59:50.223Z,22.60
2018-11-05T14:02:21.594Z,22.10
2018-11-05T14:04:52.739Z,24.57
2018-11-05T14:07:23.714Z,25.73
2018-11-05T14:09:55.226Z,26.97
2018-11-05T14:12:26.963Z,23.50
2018-11-05T14:14:58.316Z,23.20
2018-11-05T14:17:31.650Z,24.13
2018-11-05T14:20:02.716Z,24.63
2018-11-05T14:22:34.066Z,24.13
2018-11-05T14:25:06.164Z,23.83
2018-11-05T14:27:37.681Z,24.70
2018-11-05T14:30:10.654Z,23.63
2018-11-05T14:32:43.133Z,24.67
2018-11-05T14:35:15.146Z,23.37
2018-11-05T14:37:46.740Z,22.57
2018-11-05T14:40:19.218Z,24.37
2018-11-05T14:42:50.507Z,24.90
2018-11-05T14:45:22.467Z,23.80
2018-11-05T14:47:54.110Z,23.83
2018-11-05T14:50:25.187Z,24.47
2018-11-05T14:52:56.566Z,23.87
2018-11-05T14:55:28.355Z,22.53
2018-11-05T14:58:00.082Z,24.07
2018-11-05T15:00:31.954Z,23.43
2018-11-05T15:03:03.258Z,22.87
2018-11-05T15:05:34.600Z,23.10
2018-11-05T15:08:10.001Z,23.43
2018-11-05T15:10:45.035Z,24.33
2018-11-05T15:13:18.461Z,26.23
2018-11-05T15:15:50.619Z,23.60
2018-11-05T15:18:22.034Z,24.37
2018-11-05T15:20:54.102Z,24.13
2018-11-05T15:23:26.323Z,24.43
2018-11-05T15:25:57.655Z,25.30
2018-11-05T15:28:29.127Z,25.53
2018-11-05T15:31:00.559Z,24.93
2018-11-05T15:33:32.343Z,25.20
2018-11-05T15:36:03.776Z,25.27
2018-11-05T15:38:34.984Z,24.17
2018-11-05T15:41:06.637Z,23.77
2018-11-05T15:43:38.454Z,25.50
2018-11-05T15:46:09.998Z,26.20
2018-11-05T15:48:41.127Z,24.83
2018-11-05T15:51:12.790Z,26.27
2018-11-05T15:53:44.080Z,24.10
2018-11-05T15:56:15.225Z,24.50
2018-11-05T15:58:46.779Z,23.50
2018-11-05T16:01:18.011Z,25.60
2018-11-05T16:03:49.672Z,25.10
2018-11-05T16:06:22.376Z,25.30
2018-11-05T16:08:53.571Z,26.90
2018-11-05T16:11:24.879Z,23.80
2018-11-05T16:13:56.636Z,26.03
2018-11-05T16:16:27.994Z,26.70
2018-11-05T16:18:59.318Z,24.43
2018-11-05T16:21:31.433Z,26.27
2018-11-05T16:24:04.676Z,26.50
2018-11-05T16:26:36.518Z,26.30
2018-11-05T16:29:07.701Z,25.63
2018-11-05T16:31:40.290Z,23.70
2018-11-05T16:34:12.509Z,24.07
2018-11-05T16:36:43.576Z,25.70
2018-11-05T16:39:15.507Z,23.23
2018-11-05T16:41:48.165Z,23.70
2018-11-05T16:44:19.910Z,27.43
2018-11-05T16:46:51.147Z,24.40
2018-11-05T16:49:23.028Z,25.60
2018-11-05T16:51:57.085Z,26.70
2018-11-05T16:54:28.950Z,25.87
2018-11-05T16:57:01.713Z,27.20
2018-11-05T16:59:37.080Z,27.73
2018-11-05T17:02:16.947Z,26.13
2018-11-05T17:04:48.432Z,25.30
2018-11-05T17:07:20.238Z,26.87
2018-11-05T17:09:51.721Z,25.90
2018-11-05T17:12:24.228Z,25.37
2018-11-05T17:14:58.185Z,26.43
2018-11-05T17:17:29.372Z,24.70
2018-11-05T17:20:01.067Z,24.60
2018-11-05T17:22:32.165Z,25.17
2018-11-05T17:25:04.159Z,23.13
2018-11-05T17:27:35.466Z,22.80
2018-11-05T17:30:10.434Z,24.93
2018-11-05T17:32:42.408Z,24.63
2018-11-05T17:35:15.221Z,25.17
2018-11-05T17:37:48.065Z,25.27
2018-11-05T17:40:24.108Z,27.27
2018-11-05T17:42:55.639Z,25.37
2018-11-05T17:45:28.546Z,24.93
2018-11-05T17:47:59.893Z,27.27
2018-11-05T17:50:33.170Z,26.73
2018-11-05T17:53:05.603Z,25.07
2018-11-05T17:55:41.328Z,25.77
2018-11-05T17:58:14.876Z,25.87
2018-11-05T18:00:49.838Z,25.60
2018-11-05T18:03:30.473Z,26.23
2018-11-05T18:06:10.366Z,25.27
2018-11-05T18:08:46.950Z,26.70
2018-11-05T18:11:23.801Z,25.83
2018-11-05T18:14:08.153Z,25.70
2018-11-05T18:16:50.795Z,24.77
2018-11-05T18:19:22.525Z,25.73
2018-11-05T18:21:56.475Z,26.20
2018-11-05T18:24:27.669Z,30.30
2018-11-05T18:26:59.604Z,26.40
2018-11-05T18:29:30.759Z,26.80
2018-11-05T18:32:02.696Z,26.03
2018-11-05T18:34:36.336Z,27.90
2018-11-05T18:37:08.969Z,29.43
2018-11-05T18:39:41.740Z,28.43
2018-11-05T18:42:14.365Z,27.83
2018-11-05T18:44:46.420Z,26.40
2018-11-05T18:47:18.124Z,26.80
2018-11-05T18:49:49.203Z,27.50
2018-11-05T18:52:20.868Z,27.63
2018-11-05T18:54:52.234Z,27.27
2018-11-05T18:57:23.684Z,26.20
2018-11-05T18:59:55.244Z,27.17
2018-11-05T19:02:31.148Z,27.30
2018-11-05T19:05:03.507Z,26.90
2018-11-05T19:07:35.223Z,26.00
2018-11-05T19:10:08.189Z,24.10
2018-11-05T19:12:40.631Z,25.57
2018-11-05T19:15:13.775Z,25.90
2018-11-05T19:17:46.404Z,24.83
2018-11-05T19:20:17.883Z,25.03
2018-11-05T19:22:49.653Z,24.10
2018-11-05T19:25:21.177Z,24.80
2018-11-05T19:27:53.597Z,23.90
2018-11-05T19:30:26.762Z,23.70
2018-11-05T19:32:58.899Z,24.53
2018-11-05T19:35:32.118Z,25.50
2018-11-05T19:38:04.031Z,27.63
2018-11-05T19:40:35.044Z,25.07
2018-11-05T19:43:31.648Z,25.60
2018-11-05T19:50:48.844Z,22.13
2018-11-05T19:53:20.136Z,20.40
2018-11-05T19:55:51.659Z,19.60
2018-11-05T19:58:23.098Z,21.50
2018-11-05T20:00:55.976Z,20.03
2018-11-05T20:03:27.519Z,19.40
2018-11-05T20:06:00.238Z,18.13
2018-11-05T20:08:32.033Z,19.77
2018-11-05T20:11:03.720Z,20.00
2018-11-05T20:13:36.133Z,21.27
2018-11-05T20:16:08.154Z,19.10
2018-11-05T20:18:41.018Z,19.80
2018-11-05T20:21:12.263Z,20.27
2018-11-05T20:23:43.371Z,18.77
2018-11-05T20:26:15.367Z,18.37
2018-11-05T20:28:46.591Z,17.70
2018-11-05T20:31:18.636Z,17.90
2018-11-05T20:33:50.248Z,18.03
2018-11-05T20:36:23.051Z,19.83
2018-11-05T20:38:54.179Z,18.70
2018-11-05T20:41:26.486Z,17.10
2018-11-05T20:43:59.727Z,17.53
2018-11-05T20:46:30.918Z,15.93
2018-11-05T20:49:02.444Z,17.50
2018-11-05T20:51:35.283Z,16.00
2018-11-05T20:54:07.687Z,16.43
2018-11-05T20:56:39.631Z,16.47
2018-11-05T20:59:11.508Z,15.90
2018-11-05T21:01:43.725Z,15.93
2018-11-05T21:04:15.425Z,14.87
2018-11-05T21:06:47.236Z,15.07
2018-11-05T21:09:18.905Z,14.27
2018-11-05T21:11:50.686Z,14.80
2018-11-05T21:14:23.983Z,13.97
2018-11-05T21:16:56.043Z,14.20
2018-11-05T21:19:27.607Z,13.57
2018-11-05T21:21:59.312Z,13.20
2018-11-05T21:24:32.655Z,15.03
2018-11-05T21:27:04.490Z,15.27
2018-11-05T21:29:36.118Z,13.93
2018-11-05T21:32:09.134Z,14.57
2018-11-05T21:34:40.572Z,14.10
2018-11-05T21:37:12.477Z,14.60
2018-11-05T21:39:45.247Z,14.00
2018-11-05T21:42:17.280Z,13.83
2018-11-05T21:44:49.590Z,14.00
2018-11-05T21:47:21.629Z,14.90
2018-11-05T21:49:53.363Z,13.80
2018-11-05T21:52:25.894Z,14.33
2018-11-05T21:54:58.673Z,14.57
2018-11-05T21:57:30.265Z,14.70
2018-11-05T22:00:02.041Z,14.43
2018-11-05T22:02:39.132Z,15.00
2018-11-05T22:05:11.011Z,14.50
2018-11-05T22:07:42.591Z,13.93
2018-11-05T22:10:14.943Z,13.70
2018-11-05T22:12:47.463Z,13.30
2018-11-05T22:15:19.037Z,12.63
2018-11-05T22:17:50.218Z,12.97
2018-11-05T22:20:21.655Z,12.60
2018-11-05T22:22:53.745Z,11.97
2018-11-05T22:25:25.153Z,11.83
2018-11-05T22:27:57.842Z,11.47
2018-11-05T22:30:29.408Z,10.20
2018-11-05T22:33:00.995Z,10.63
2018-11-05T22:35:33.558Z,10.80
2018-11-05T22:38:05.603Z,10.53
2018-11-05T22:40:36.920Z,11.43
2018-11-05T22:43:08.488Z,11.40
2018-11-05T22:45:40.113Z,10.73
2018-11-05T22:48:12.969Z,11.00
2018-11-05T22:50:44.621Z,10.70
2018-11-05T22:53:16.631Z,11.47
2018-11-05T22:55:48.405Z,10.77
2018-11-05T22:58:20.154Z,9.73
2018-11-05T23:00:58.532Z,10.40
2018-11-05T23:03:32.139Z,9.73
2018-11-05T23:06:03.723Z,10.43
2018-11-05T23:08:37.085Z,10.70
2018-11-05T23:11:12.057Z,10.10
2018-11-05T23:13:44.126Z,12.23
2018-11-05T23:16:16.126Z,12.83
2018-11-05T23:18:47.786Z,11.13
2018-11-05T23:21:19.399Z,10.87
2018-11-05T23:23:50.862Z,11.43
2018-11-05T23:26:23.787Z,10.70
2018-11-05T23:28:57.178Z,11.67
2018-11-05T23:31:28.843Z,10.80
2018-11-05T23:34:00.813Z,11.00
2018-11-05T23:36:32.779Z,11.40
2018-11-05T23:39:05.974Z,11.63
2018-11-05T23:41:38.777Z,10.40
2018-11-05T23:44:10.311Z,11.43
2018-11-05T23:46:41.633Z,10.07
2018-11-05T23:49:13.335Z,9.70
2018-11-05T23:51:44.691Z,10.37
2018-11-05T23:54:16.127Z,10.73
2018-11-05T23:56:48.109Z,10.37
2018-11-05T23:59:20.425Z,10.33
